createdAt,value
2018-12-26T00:01:44.810Z,73.05
2018-12-26T00:04:13.653Z,72.66
2018-12-26T00:06:42.159Z,71.52
2018-12-26T00:09:10.815Z,71.25
2018-12-26T00:11:39.338Z,71.66
2018-12-26T00:14:07.947Z,71.17
2018-12-26T00:16:36.456Z,72.12
2018-12-26T00:19:04.987Z,71.87
2018-12-26T00:21:35.292Z,72.09
2018-12-26T00:24:03.973Z,74.42
2018-12-26T00:26:32.621Z,71.59
2018-12-26T00:29:01.866Z,71.08
2018-12-26T00:31:30.436Z,70.14
2018-12-26T00:33:58.958Z,71.95
2018-12-26T00:36:27.528Z,72.83
2018-12-26T00:38:56.132Z,73.01
2018-12-26T00:41:24.821Z,73.09
2018-12-26T00:43:53.343Z,72.74
2018-12-26T00:46:21.910Z,72.32
2018-12-26T00:48:50.459Z,71.64
2018-12-26T00:51:19.034Z,71.56
2018-12-26T00:53:47.611Z,71.65
2018-12-26T00:56:16.305Z,70.59
2018-12-26T00:58:44.817Z,73.19
2018-12-26T01:01:13.406Z,74.05
2018-12-26T01:03:42.030Z,70.37
2018-12-26T01:06:10.610Z,69.58
2018-12-26T01:08:39.153Z,71.27
2018-12-26T01:11:07.720Z,72.21
2018-12-26T01:13:36.298Z,73.70
2018-12-26T01:16:04.977Z,73.68
2018-12-26T01:18:33.554Z,72.89
2018-12-26T01:21:02.157Z,72.54
2018-12-26T01:23:30.739Z,73.43
2018-12-26T01:25:59.356Z,72.62
2018-12-26T01:28:27.961Z,72.65
2018-12-26T01:30:56.527Z,72.45
2018-12-26T01:33:25.050Z,72.11
2018-12-26T01:35:53.640Z,74.68
2018-12-26T01:38:22.177Z,71.98
2018-12-26T01:40:50.712Z,70.31
2018-12-26T01:43:19.275Z,70.06
2018-12-26T01:45:47.874Z,71.71
2018-12-26T01:48:16.396Z,72.77
2018-12-26T01:50:45.023Z,73.66
2018-12-26T01:53:13.519Z,73.21
2018-12-26T01:55:42.113Z,72.74
2018-12-26T01:58:10.661Z,72.24
2018-12-26T02:00:39.376Z,71.29
2018-12-26T02:03:08.040Z,70.99
2018-12-26T02:05:36.561Z,71.82
2018-12-26T02:08:05.177Z,72.91
2018-12-26T02:10:33.696Z,73.73
2018-12-26T02:13:02.265Z,73.69
2018-12-26T02:15:30.841Z,72.62
2018-12-26T02:17:59.366Z,70.91
2018-12-26T02:20:28.075Z,72.00
2018-12-26T02:22:56.878Z,73.55
2018-12-26T02:25:25.384Z,73.86
2018-12-26T02:27:53.946Z,73.63
2018-12-26T02:30:22.592Z,73.25
2018-12-26T02:32:51.157Z,72.57
2018-12-26T02:35:19.737Z,72.37
2018-12-26T02:37:48.439Z,72.03
2018-12-26T02:40:16.948Z,72.40
2018-12-26T02:42:45.573Z,72.20
2018-12-26T02:45:14.092Z,72.07
2018-12-26T02:47:42.818Z,74.98
2018-12-26T02:50:11.522Z,72.02
2018-12-26T02:52:40.123Z,70.38
2018-12-26T02:55:08.752Z,72.49
2018-12-26T02:57:37.251Z,72.49
2018-12-26T03:00:08.101Z,73.80
2018-12-26T03:02:36.683Z,74.95
2018-12-26T03:05:05.967Z,74.33
2018-12-26T03:07:34.600Z,73.66
2018-12-26T03:10:03.489Z,72.99
2018-12-26T03:12:31.975Z,73.60
2018-12-26T03:15:00.610Z,73.65
2018-12-26T03:17:29.161Z,74.04
2018-12-26T03:19:57.681Z,73.73
2018-12-26T03:22:26.208Z,75.31
2018-12-26T03:24:54.831Z,74.50
2018-12-26T03:27:23.376Z,72.78
2018-12-26T03:29:51.871Z,72.94
2018-12-26T03:32:20.390Z,73.71
2018-12-26T03:34:49.064Z,73.40
2018-12-26T03:37:17.634Z,74.21
2018-12-26T03:39:46.250Z,74.11
2018-12-26T03:42:14.766Z,73.51
2018-12-26T03:44:43.394Z,72.96
2018-12-26T03:47:12.200Z,73.34
2018-12-26T03:49:40.759Z,73.24
2018-12-26T03:52:09.449Z,73.03
2018-12-26T03:54:38.073Z,72.99
2018-12-26T03:57:06.805Z,73.00
2018-12-26T03:59:35.435Z,77.58
2018-12-26T04:02:04.051Z,72.73
2018-12-26T04:04:32.632Z,72.36
2018-12-26T04:07:01.221Z,71.34
2018-12-26T04:09:29.850Z,72.72
2018-12-26T04:11:58.465Z,74.23
2018-12-26T04:14:27.158Z,74.29
2018-12-26T04:16:55.839Z,73.62
2018-12-26T04:19:24.741Z,73.02
2018-12-26T04:21:53.414Z,72.71
2018-12-26T04:24:22.324Z,73.04
2018-12-26T04:26:50.837Z,72.86
2018-12-26T04:29:19.353Z,72.57
2018-12-26T04:31:48.006Z,72.56
2018-12-26T04:34:16.615Z,73.56
2018-12-26T04:36:45.136Z,72.12
2018-12-26T04:39:13.679Z,70.69
2018-12-26T04:41:42.322Z,69.84
2018-12-26T04:44:10.807Z,71.41
2018-12-26T04:46:39.325Z,73.18
2018-12-26T04:49:07.921Z,73.33
2018-12-26T04:51:36.470Z,73.31
2018-12-26T04:54:05.200Z,72.90
2018-12-26T04:56:33.723Z,73.06
2018-12-26T04:59:02.350Z,72.43
2018-12-26T05:01:30.946Z,72.95
2018-12-26T05:03:59.538Z,72.91
2018-12-26T05:06:28.117Z,73.30
2018-12-26T05:08:56.635Z,73.43
2018-12-26T05:11:25.273Z,75.25
2018-12-26T05:13:53.900Z,72.80
2018-12-26T05:16:22.492Z,71.49
2018-12-26T05:18:51.712Z,72.00
2018-12-26T05:21:20.341Z,73.04
2018-12-26T05:23:49.098Z,72.96
2018-12-26T05:26:17.710Z,73.14
2018-12-26T05:28:46.199Z,73.60
2018-12-26T05:31:14.748Z,73.12
2018-12-26T05:33:43.371Z,73.72
2018-12-26T05:36:11.860Z,73.01
2018-12-26T05:38:40.472Z,73.18
2018-12-26T05:41:09.003Z,72.92
2018-12-26T05:43:37.554Z,73.82
2018-12-26T05:46:06.120Z,74.98
2018-12-26T05:48:34.615Z,73.13
2018-12-26T05:51:03.240Z,71.68
2018-12-26T05:53:31.812Z,71.44
2018-12-26T05:56:00.378Z,72.28
2018-12-26T05:58:28.890Z,72.94
2018-12-26T06:00:57.315Z,73.09
2018-12-26T06:03:25.876Z,73.41
2018-12-26T06:05:54.419Z,73.28
2018-12-26T06:08:22.973Z,73.46
2018-12-26T06:10:51.439Z,72.58
2018-12-26T06:13:20.553Z,73.28
2018-12-26T06:15:49.128Z,73.12
2018-12-26T06:18:17.597Z,72.77
2018-12-26T06:20:46.224Z,73.18
2018-12-26T06:23:14.804Z,74.46
2018-12-26T06:25:43.390Z,73.05
2018-12-26T06:28:12.012Z,71.84
2018-12-26T06:30:40.464Z,71.39
2018-12-26T06:33:09.276Z,72.77
2018-12-26T06:35:37.726Z,72.88
2018-12-26T06:38:06.559Z,72.62
2018-12-26T06:40:35.109Z,72.75
2018-12-26T06:43:03.557Z,72.33
2018-12-26T06:45:32.146Z,72.30
2018-12-26T06:48:00.699Z,71.82
2018-12-26T06:50:29.240Z,72.18
2018-12-26T06:52:57.742Z,73.10
2018-12-26T06:55:26.309Z,72.75
2018-12-26T06:57:59.989Z,74.04
2018-12-26T07:00:25.207Z,72.88
2018-12-26T07:02:53.749Z,71.43
2018-12-26T07:05:22.366Z,72.05
2018-12-26T07:07:50.942Z,71.05
2018-12-26T07:10:19.540Z,71.85
2018-12-26T07:12:48.159Z,71.71
2018-12-26T07:15:16.719Z,72.00
2018-12-26T07:17:45.374Z,71.19
2018-12-26T07:20:13.990Z,71.14
2018-12-26T07:22:42.520Z,71.37
2018-12-26T07:25:11.003Z,71.32
2018-12-26T07:27:39.506Z,71.16
2018-12-26T07:30:08.055Z,70.73
2018-12-26T07:32:36.508Z,70.78
2018-12-26T07:35:05.232Z,72.57
2018-12-26T07:37:33.783Z,70.45
2018-12-26T07:40:02.318Z,70.29
2018-12-26T07:42:30.859Z,70.16
2018-12-26T07:44:59.307Z,69.85
2018-12-26T07:47:28.530Z,70.33
2018-12-26T07:49:57.030Z,70.85
2018-12-26T07:52:25.700Z,71.36
2018-12-26T07:54:54.275Z,71.19
2018-12-26T07:57:22.922Z,70.90
2018-12-26T07:59:51.412Z,71.60
2018-12-26T08:02:19.939Z,71.46
2018-12-26T08:04:48.560Z,70.78
2018-12-26T08:07:17.054Z,71.44
2018-12-26T08:09:45.547Z,74.30
2018-12-26T08:12:14.147Z,72.48
2018-12-26T08:14:42.605Z,69.60
2018-12-26T08:17:11.173Z,69.60
2018-12-26T08:19:39.711Z,70.39
2018-12-26T08:22:08.163Z,70.48
2018-12-26T08:24:36.757Z,71.74
2018-12-26T08:27:05.384Z,71.26
2018-12-26T08:29:33.919Z,71.19
2018-12-26T08:32:02.489Z,71.26
2018-12-26T08:34:31.087Z,71.68
2018-12-26T08:37:00.368Z,71.61
2018-12-26T08:39:29.012Z,70.77
2018-12-26T08:41:57.532Z,71.17
2018-12-26T08:44:26.027Z,70.42
2018-12-26T08:46:54.559Z,72.52
2018-12-26T08:49:23.199Z,70.73
2018-12-26T08:51:51.855Z,69.80
2018-12-26T08:54:20.475Z,69.91
2018-12-26T08:56:49.139Z,70.77
2018-12-26T08:59:17.726Z,71.04
2018-12-26T09:01:47.298Z,70.40
2018-12-26T09:04:15.834Z,71.13
2018-12-26T09:06:44.450Z,71.04
2018-12-26T09:09:12.964Z,71.28
2018-12-26T09:11:41.459Z,71.03
2018-12-26T09:14:10.049Z,70.96
2018-12-26T09:16:38.637Z,70.96
2018-12-26T09:19:07.282Z,70.82
2018-12-26T09:21:35.873Z,72.96
2018-12-26T09:24:04.518Z,71.14
2018-12-26T09:26:33.929Z,70.93
2018-12-26T09:29:02.458Z,69.59
2018-12-26T09:31:31.086Z,70.58
2018-12-26T09:33:59.648Z,70.87
2018-12-26T09:36:28.165Z,70.84
2018-12-26T09:38:56.739Z,71.15
2018-12-26T09:41:25.276Z,71.42
2018-12-26T09:43:53.905Z,70.45
2018-12-26T09:46:22.513Z,70.01
2018-12-26T09:48:51.158Z,69.88
2018-12-26T09:51:19.807Z,70.08
2018-12-26T09:53:48.317Z,69.46
2018-12-26T09:56:16.900Z,69.38
2018-12-26T09:58:52.460Z,69.63
2018-12-26T10:01:15.667Z,69.31
2018-12-26T10:03:44.172Z,67.69
2018-12-26T10:06:12.709Z,68.46
2018-12-26T10:08:41.275Z,68.95
2018-12-26T10:11:09.996Z,69.30
2018-12-26T10:13:38.454Z,69.39
2018-12-26T10:16:07.016Z,69.07
2018-12-26T10:18:35.595Z,69.93
2018-12-26T10:21:04.222Z,69.51
2018-12-26T10:23:32.804Z,68.84
2018-12-26T10:26:01.353Z,68.22
2018-12-26T10:28:29.962Z,68.03
2018-12-26T10:30:58.509Z,68.26
2018-12-26T10:33:27.033Z,70.49
2018-12-26T10:35:55.589Z,68.92
2018-12-26T10:38:24.211Z,68.07
2018-12-26T10:40:52.798Z,66.77
2018-12-26T10:43:21.349Z,67.97
2018-12-26T10:45:49.883Z,67.70
2018-12-26T10:48:18.603Z,68.36
2018-12-26T10:50:47.179Z,68.66
2018-12-26T10:53:15.741Z,68.93
2018-12-26T10:55:44.337Z,68.43
2018-12-26T10:58:12.984Z,68.22
2018-12-26T11:00:41.642Z,68.14
2018-12-26T11:03:10.215Z,68.08
2018-12-26T11:05:38.830Z,68.74
2018-12-26T11:08:07.491Z,67.71
2018-12-26T11:10:36.069Z,69.30
2018-12-26T11:13:04.683Z,67.88
2018-12-26T11:15:33.325Z,67.28
2018-12-26T11:18:02.019Z,67.68
2018-12-26T11:20:30.553Z,67.25
2018-12-26T11:22:59.089Z,66.40
2018-12-26T11:25:27.677Z,67.18
2018-12-26T11:27:56.239Z,67.57
2018-12-26T11:30:24.851Z,66.43
2018-12-26T11:32:53.479Z,66.57
2018-12-26T11:35:22.131Z,66.23
2018-12-26T11:37:50.785Z,65.70
2018-12-26T11:40:19.436Z,65.41
2018-12-26T11:42:48.014Z,66.45
2018-12-26T11:45:16.678Z,66.77
2018-12-26T11:47:45.245Z,65.85
2018-12-26T11:50:13.825Z,64.04
2018-12-26T11:52:42.489Z,64.51
2018-12-26T11:55:11.927Z,64.60
2018-12-26T11:57:40.378Z,64.35
2018-12-26T12:00:09.192Z,64.97
2018-12-26T12:02:37.781Z,65.46
2018-12-26T12:05:06.606Z,65.40
2018-12-26T12:07:35.137Z,65.73
2018-12-26T12:10:04.043Z,65.35
2018-12-26T12:12:32.652Z,65.60
2018-12-26T12:15:01.309Z,64.66
2018-12-26T12:17:29.947Z,64.12
2018-12-26T12:19:58.569Z,68.03
2018-12-26T12:22:27.217Z,64.68
2018-12-26T12:24:55.674Z,63.51
2018-12-26T12:27:24.333Z,63.72
2018-12-26T12:29:53.857Z,63.21
2018-12-26T12:32:22.449Z,63.71
2018-12-26T12:34:51.240Z,63.84
2018-12-26T12:37:19.892Z,64.34
2018-12-26T12:39:48.427Z,63.03
2018-12-26T12:42:17.072Z,63.26
2018-12-26T12:44:45.664Z,63.69
2018-12-26T12:47:14.300Z,61.71
2018-12-26T12:49:42.950Z,63.13
2018-12-26T12:52:11.640Z,63.24
2018-12-26T12:54:40.420Z,63.76
2018-12-26T12:57:08.987Z,66.28
2018-12-26T12:59:44.744Z,63.81
2018-12-26T13:02:07.924Z,62.42
2018-12-26T13:04:36.514Z,60.91
2018-12-26T13:07:05.284Z,62.35
2018-12-26T13:09:33.678Z,62.34
2018-12-26T13:12:02.303Z,62.58
2018-12-26T13:14:30.908Z,63.17
2018-12-26T13:16:59.562Z,62.28
2018-12-26T13:19:28.148Z,62.51
2018-12-26T13:21:56.766Z,63.24
2018-12-26T13:24:25.353Z,64.06
2018-12-26T13:26:53.912Z,62.49
2018-12-26T13:29:22.484Z,63.08
2018-12-26T13:31:51.534Z,64.52
2018-12-26T13:34:20.097Z,62.88
2018-12-26T13:36:48.702Z,62.54
2018-12-26T13:39:17.208Z,62.56
2018-12-26T13:41:45.902Z,62.51
2018-12-26T13:44:14.489Z,62.96
2018-12-26T13:46:43.047Z,62.96
2018-12-26T13:49:11.637Z,63.84
2018-12-26T13:51:40.242Z,63.84
2018-12-26T13:54:08.993Z,63.64
2018-12-26T13:56:37.573Z,63.32
2018-12-26T13:59:06.252Z,63.17
2018-12-26T14:01:34.851Z,63.10
2018-12-26T14:04:03.327Z,63.05
2018-12-26T14:06:32.003Z,62.77
2018-12-26T14:09:00.632Z,64.82
2018-12-26T14:11:29.232Z,62.25
2018-12-26T14:13:57.828Z,63.13
2018-12-26T14:16:26.404Z,62.11
2018-12-26T14:18:54.948Z,62.22
2018-12-26T14:21:23.572Z,62.22
2018-12-26T14:23:52.221Z,62.99
2018-12-26T14:26:20.699Z,63.17
2018-12-26T14:28:49.293Z,62.66
2018-12-26T14:31:17.898Z,63.51
2018-12-26T14:33:46.463Z,63.12
2018-12-26T14:36:14.983Z,63.18
2018-12-26T14:38:43.648Z,63.33
2018-12-26T14:41:12.170Z,64.26
2018-12-26T14:43:40.792Z,66.58
2018-12-26T14:46:09.370Z,63.54
2018-12-26T14:48:38.008Z,61.58
2018-12-26T14:51:06.607Z,61.77
2018-12-26T14:53:35.232Z,62.72
2018-12-26T14:56:03.753Z,62.41
2018-12-26T14:58:32.402Z,63.42
2018-12-26T15:01:00.984Z,63.47
2018-12-26T15:03:29.614Z,64.70
2018-12-26T15:06:00.204Z,64.46
2018-12-26T15:08:28.555Z,63.99
2018-12-26T15:10:57.072Z,63.95
2018-12-26T15:13:25.711Z,62.57
2018-12-26T15:15:54.437Z,62.63
2018-12-26T15:18:23.031Z,63.07
2018-12-26T15:20:51.653Z,63.77
2018-12-26T15:23:20.302Z,61.25
2018-12-26T15:25:48.877Z,61.97
2018-12-26T15:28:17.580Z,63.10
2018-12-26T15:30:46.253Z,62.13
2018-12-26T15:33:14.824Z,63.21
2018-12-26T15:35:43.417Z,63.92
2018-12-26T15:38:12.054Z,64.54
2018-12-26T15:40:40.691Z,64.87
2018-12-26T15:43:09.269Z,64.20
2018-12-26T15:45:37.884Z,64.55
2018-12-26T15:48:06.347Z,64.28
2018-12-26T15:50:34.933Z,63.52
2018-12-26T15:53:03.506Z,66.18
2018-12-26T15:55:32.069Z,66.84
2018-12-26T15:58:00.706Z,63.15
2018-12-26T16:00:37.186Z,62.86
2018-12-26T16:02:59.655Z,62.90
2018-12-26T16:05:28.326Z,63.79
2018-12-26T16:07:56.956Z,64.95
2018-12-26T16:10:25.568Z,65.84
2018-12-26T16:12:54.168Z,66.78
2018-12-26T16:15:22.782Z,66.78
2018-12-26T16:17:51.415Z,66.45
2018-12-26T16:20:20.268Z,66.48
2018-12-26T16:22:48.903Z,66.23
2018-12-26T16:25:17.615Z,65.54
2018-12-26T16:27:46.278Z,64.99
2018-12-26T16:30:14.919Z,72.22
2018-12-26T16:32:43.572Z,66.43
2018-12-26T16:35:12.282Z,65.51
2018-12-26T16:37:40.883Z,64.42
2018-12-26T16:40:09.635Z,66.24
2018-12-26T16:42:38.199Z,67.58
2018-12-26T16:45:07.610Z,68.25
2018-12-26T16:47:36.187Z,68.21
2018-12-26T16:50:05.569Z,67.87
2018-12-26T16:52:34.010Z,67.43
2018-12-26T16:55:02.653Z,67.36
2018-12-26T16:57:31.179Z,67.27
2018-12-26T16:59:59.753Z,67.01
2018-12-26T17:02:28.346Z,67.06
2018-12-26T17:04:56.901Z,68.79
2018-12-26T17:07:25.535Z,70.33
2018-12-26T17:09:54.179Z,66.59
2018-12-26T17:12:22.695Z,65.71
2018-12-26T17:14:51.331Z,66.47
2018-12-26T17:17:19.950Z,68.53
2018-12-26T17:19:48.535Z,68.44
2018-12-26T17:22:17.141Z,69.00
2018-12-26T17:24:45.788Z,69.16
2018-12-26T17:27:14.417Z,67.98
2018-12-26T17:29:43.026Z,67.66
2018-12-26T17:32:11.666Z,67.53
2018-12-26T17:34:40.956Z,67.51
2018-12-26T17:37:09.537Z,67.20
2018-12-26T17:39:38.098Z,67.56
2018-12-26T17:42:06.635Z,69.01
2018-12-26T17:44:35.241Z,65.89
2018-12-26T17:47:03.845Z,65.43
2018-12-26T17:49:32.421Z,65.72
2018-12-26T17:52:01.027Z,66.72
2018-12-26T17:54:30.612Z,67.95
2018-12-26T17:56:59.250Z,67.77
2018-12-26T17:59:36.149Z,68.03
2018-12-26T18:02:10.357Z,67.83
2018-12-26T18:04:38.952Z,68.04
2018-12-26T18:07:07.613Z,67.17
2018-12-26T18:09:36.176Z,67.82
2018-12-26T18:12:11.711Z,67.08
2018-12-26T18:14:35.165Z,67.53
2018-12-26T18:17:03.823Z,71.20
2018-12-26T18:19:32.330Z,68.50
2018-12-26T18:22:00.858Z,65.27
2018-12-26T18:24:29.431Z,65.17
2018-12-26T18:26:57.947Z,66.73
2018-12-26T18:29:26.532Z,67.82
2018-12-26T18:31:55.193Z,68.07
2018-12-26T18:34:23.869Z,68.96
2018-12-26T18:36:52.429Z,69.35
2018-12-26T18:39:21.108Z,68.59
2018-12-26T18:41:50.647Z,67.98
2018-12-26T18:44:19.226Z,67.52
2018-12-26T18:46:47.801Z,67.82
2018-12-26T18:49:16.469Z,67.62
2018-12-26T18:51:44.959Z,69.77
2018-12-26T18:54:13.548Z,70.54
2018-12-26T18:56:42.108Z,66.19
2018-12-26T18:59:10.734Z,65.70
2018-12-26T19:01:39.330Z,66.72
2018-12-26T19:04:08.042Z,68.86
2018-12-26T19:06:36.672Z,69.36
2018-12-26T19:09:06.458Z,70.07
2018-12-26T19:11:35.080Z,69.74
2018-12-26T19:14:03.732Z,69.24
2018-12-26T19:16:32.347Z,69.36
2018-12-26T19:19:00.931Z,68.34
2018-12-26T19:21:29.538Z,68.58
2018-12-26T19:23:58.055Z,68.29
2018-12-26T19:26:26.800Z,67.68
2018-12-26T19:28:55.398Z,72.08
2018-12-26T19:31:24.024Z,67.91
2018-12-26T19:33:52.708Z,66.73
2018-12-26T19:36:21.272Z,66.51
2018-12-26T19:38:50.676Z,67.77
2018-12-26T19:41:19.268Z,69.29
2018-12-26T19:43:47.757Z,69.82
2018-12-26T19:46:16.311Z,69.65
2018-12-26T19:48:44.967Z,68.76
2018-12-26T19:51:13.578Z,68.67
2018-12-26T19:53:42.167Z,68.27
2018-12-26T19:56:10.712Z,68.06
2018-12-26T19:58:39.293Z,67.92
2018-12-26T20:01:07.975Z,67.85
2018-12-26T20:03:36.651Z,70.95
2018-12-26T20:06:05.293Z,70.79
2018-12-26T20:08:33.921Z,66.45
2018-12-26T20:11:02.523Z,66.30
2018-12-26T20:13:31.077Z,67.69
2018-12-26T20:15:59.698Z,69.66
2018-12-26T20:18:28.343Z,70.23
2018-12-26T20:20:56.932Z,70.60
2018-12-26T20:23:25.556Z,70.33
2018-12-26T20:25:54.171Z,69.56
2018-12-26T20:28:22.881Z,69.41
2018-12-26T20:30:51.467Z,69.22
2018-12-26T20:33:20.410Z,68.97
2018-12-26T20:35:49.003Z,68.46
2018-12-26T20:38:17.560Z,69.11
2018-12-26T20:40:46.161Z,74.78
2018-12-26T20:43:14.789Z,68.51
2018-12-26T20:45:43.371Z,67.27
2018-12-26T20:48:12.015Z,66.97
2018-12-26T20:50:40.530Z,69.12
2018-12-26T20:53:09.097Z,69.85
2018-12-26T20:55:37.739Z,69.87
2018-12-26T20:58:06.445Z,69.85
2018-12-26T21:00:35.046Z,70.04
2018-12-26T21:03:03.627Z,69.68
2018-12-26T21:05:32.343Z,69.53
2018-12-26T21:08:00.978Z,69.53
2018-12-26T21:10:29.478Z,69.27
2018-12-26T21:12:58.142Z,68.84
2018-12-26T21:15:26.809Z,72.50
2018-12-26T21:17:55.474Z,71.23
2018-12-26T21:20:24.720Z,67.56
2018-12-26T21:22:53.300Z,69.11
2018-12-26T21:25:21.823Z,69.11
2018-12-26T21:27:50.434Z,70.30
2018-12-26T21:30:19.076Z,70.82
2018-12-26T21:32:47.703Z,70.86
2018-12-26T21:35:16.696Z,70.51
2018-12-26T21:37:45.218Z,69.61
2018-12-26T21:40:13.835Z,69.27
2018-12-26T21:42:42.532Z,69.05
2018-12-26T21:45:11.166Z,68.78
2018-12-26T21:47:39.796Z,68.29
2018-12-26T21:50:10.542Z,68.89
2018-12-26T21:52:39.277Z,72.65
2018-12-26T21:55:07.876Z,67.13
2018-12-26T21:57:36.366Z,66.20
2018-12-26T22:00:05.756Z,67.76
2018-12-26T22:02:34.364Z,68.59
2018-12-26T22:05:03.019Z,67.11
2018-12-26T22:07:31.648Z,67.17
2018-12-26T22:10:01.056Z,67.21
2018-12-26T22:12:29.577Z,68.38
2018-12-26T22:14:58.144Z,68.28
2018-12-26T22:17:26.740Z,67.38
2018-12-26T22:19:55.377Z,67.24
2018-12-26T22:22:23.866Z,67.63
2018-12-26T22:24:52.517Z,67.73
2018-12-26T22:27:21.085Z,73.05
2018-12-26T22:29:49.720Z,67.65
2018-12-26T22:32:18.301Z,66.96
2018-12-26T22:34:46.821Z,66.30
2018-12-26T22:37:15.534Z,65.92
2018-12-26T22:39:44.073Z,66.79
2018-12-26T22:42:12.629Z,66.74
2018-12-26T22:44:41.222Z,67.73
2018-12-26T22:47:09.808Z,67.73
2018-12-26T22:49:38.439Z,67.66
2018-12-26T22:52:07.037Z,67.55
2018-12-26T22:54:35.592Z,67.30
2018-12-26T22:57:04.277Z,66.92
2018-12-26T22:59:32.849Z,66.23
2018-12-26T23:02:01.493Z,67.49
2018-12-26T23:04:30.080Z,67.46
2018-12-26T23:06:58.689Z,64.51
2018-12-26T23:09:27.367Z,64.28
2018-12-26T23:11:55.965Z,65.30
2018-12-26T23:14:24.540Z,65.68
2018-12-26T23:16:53.112Z,66.24
2018-12-26T23:19:21.659Z,66.97
2018-12-26T23:21:50.330Z,67.44
2018-12-26T23:24:18.917Z,67.66
2018-12-26T23:26:47.529Z,66.54
2018-12-26T23:29:16.011Z,66.54
2018-12-26T23:31:44.628Z,66.73
2018-12-26T23:34:13.225Z,66.05
2018-12-26T23:36:41.773Z,66.83
2018-12-26T23:39:10.257Z,71.43
2018-12-26T23:41:38.862Z,67.18
2018-12-26T23:44:07.673Z,64.46
2018-12-26T23:46:36.194Z,66.09
2018-12-26T23:49:04.755Z,67.43
2018-12-26T23:51:33.303Z,67.01
2018-12-26T23:54:01.907Z,67.44
2018-12-26T23:56:30.425Z,67.69
2018-12-26T23:58:58.977Z,67.94
